Terminal Aerodrome Forecast
Issued by NWS

Home | Current Version | Previous Version | Text Only | Print | Product List | Glossary On
Versions: 1 2 3 4 5 6 7 8 9 10 11 12 13 14 15 16 17 18 19 20 21 22 23 24
000
FTUS41 KBUF 282300
TAFJHW
TAF
KJHW 282340Z 2900/2924 VRB03KT P6SM SCT250
     FM290600 17005KT P6SM BKN120
     FM291200 16012KT P6SM OVC060 WS020/18040KT
     FM291500 16015G22KT P6SM VCSH OVC045 WS020/18045KT
     FM291800 17015G22KT 2SM -SN OVC025
     FM292000 18018G25KT 1SM -SN OVC015
     FM292200 19015KT 1SM -SN OVC007
      AMD LTD TO CLD VIS AND WIND=

USA.gov is the U.S. government's official web portal to all federal, state and local government web resources and services.